createdAt,value
2018-06-24T00:01:32.451Z,14.10
2018-06-24T00:04:01.595Z,14.10
2018-06-24T00:06:30.847Z,14.20
2018-06-24T00:11:28.802Z,14.10
2018-06-24T00:13:58.251Z,14.20
2018-06-24T00:16:27.271Z,14.20
2018-06-24T00:18:56.579Z,14.20
2018-06-24T00:21:25.809Z,14.20
2018-06-24T00:23:55.049Z,14.20
2018-06-24T00:26:24.251Z,14.20
2018-06-24T00:31:23.023Z,14.20
2018-06-24T00:36:20.692Z,14.30
2018-06-24T00:38:49.836Z,14.30
2018-06-24T00:41:19.035Z,14.30
2018-06-24T00:43:48.164Z,14.30
2018-06-24T00:46:17.340Z,14.40
2018-06-24T00:48:46.457Z,14.30
2018-06-24T00:51:15.723Z,14.40
2018-06-24T00:53:44.749Z,14.30
2018-06-24T00:56:20.370Z,14.20
2018-06-24T00:58:49.465Z,14.20
2018-06-24T01:01:18.504Z,14.30
2018-06-24T01:03:47.577Z,14.30
2018-06-24T01:06:16.732Z,14.20
2018-06-24T01:08:45.761Z,14.30
2018-06-24T01:11:14.866Z,14.30
2018-06-24T01:13:44.078Z,14.30
2018-06-24T01:16:13.824Z,14.30
2018-06-24T01:18:42.991Z,14.20
2018-06-24T01:21:12.214Z,14.20
2018-06-24T01:23:41.216Z,14.20
2018-06-24T01:26:10.356Z,14.20
2018-06-24T01:28:39.557Z,14.20
2018-06-24T01:31:08.571Z,14.20
2018-06-24T01:33:37.703Z,14.10
2018-06-24T01:36:06.813Z,14.20
2018-06-24T01:38:36.041Z,14.20
2018-06-24T01:41:05.315Z,14.20
2018-06-24T01:43:34.578Z,14.20
2018-06-24T01:48:33.080Z,14.10
2018-06-24T01:51:02.112Z,14.20
2018-06-24T01:53:31.303Z,14.20
2018-06-24T01:56:00.380Z,14.30
2018-06-24T01:58:29.539Z,14.40
2018-06-24T02:00:58.590Z,14.30
2018-06-24T02:03:27.797Z,14.30
2018-06-24T02:05:56.914Z,14.30
2018-06-24T02:08:26.059Z,14.20
2018-06-24T02:10:55.118Z,14.10
2018-06-24T02:15:52.881Z,14.20
2018-06-24T02:18:21.944Z,14.20
2018-06-24T02:20:50.984Z,14.20
2018-06-24T02:23:20.057Z,14.20
2018-06-24T02:25:49.153Z,14.20
2018-06-24T02:28:18.176Z,14.10
2018-06-24T02:33:16.197Z,14.10
2018-06-24T02:35:45.397Z,14.10
2018-06-24T02:38:14.591Z,14.10
2018-06-24T02:40:43.610Z,14.10
2018-06-24T02:43:12.656Z,14.10
2018-06-24T02:48:10.497Z,14.00
2018-06-24T02:50:39.604Z,13.90
2018-06-24T02:53:08.654Z,14.00
2018-06-24T02:55:37.719Z,14.00
2018-06-24T03:00:35.364Z,14.00
2018-06-24T03:03:04.562Z,13.90
2018-06-24T03:05:34.520Z,13.90
2018-06-24T03:10:32.442Z,13.80
2018-06-24T03:13:01.429Z,13.80
2018-06-24T03:15:30.464Z,13.80
2018-06-24T03:17:59.596Z,13.80
2018-06-24T03:20:28.637Z,13.70
2018-06-24T03:22:57.647Z,13.70
2018-06-24T03:25:26.727Z,13.70
2018-06-24T03:27:55.771Z,13.70
2018-06-24T03:30:25.799Z,13.70
2018-06-24T03:32:54.927Z,13.70
2018-06-24T03:35:24.052Z,13.80
2018-06-24T03:37:53.305Z,13.80
2018-06-24T03:40:22.323Z,13.80
2018-06-24T03:42:51.478Z,13.80
2018-06-24T03:45:20.478Z,13.80
2018-06-24T03:47:49.519Z,13.80
2018-06-24T03:52:47.208Z,13.70
2018-06-24T03:55:16.295Z,13.70
2018-06-24T04:00:14.199Z,13.60
2018-06-24T04:02:43.489Z,13.80
2018-06-24T04:05:12.804Z,13.80
2018-06-24T04:07:41.975Z,13.90
2018-06-24T04:10:11.128Z,13.90
2018-06-24T04:12:40.124Z,13.90
2018-06-24T04:15:09.201Z,14.00
2018-06-24T04:17:38.211Z,14.00
2018-06-24T04:20:07.246Z,14.00
2018-06-24T04:22:36.268Z,14.10
2018-06-24T04:25:05.330Z,14.10
2018-06-24T04:27:34.508Z,14.20
2018-06-24T04:30:03.709Z,14.10
2018-06-24T04:32:32.768Z,14.10
2018-06-24T04:35:01.853Z,14.10
2018-06-24T04:37:31.130Z,14.30
2018-06-24T04:42:29.008Z,14.30
2018-06-24T04:44:58.011Z,14.30
2018-06-24T04:52:24.381Z,14.30
2018-06-24T04:54:53.349Z,14.30
2018-06-24T04:57:22.362Z,14.30
2018-06-24T04:59:51.328Z,14.40
2018-06-24T05:02:20.349Z,14.50
2018-06-24T05:04:49.343Z,14.50
2018-06-24T05:07:18.503Z,14.60
2018-06-24T05:09:47.540Z,14.60
2018-06-24T05:12:16.553Z,14.60
2018-06-24T05:14:45.617Z,14.80
2018-06-24T05:17:14.624Z,14.80
2018-06-24T05:19:43.606Z,14.80
2018-06-24T05:24:41.207Z,15.20
2018-06-24T05:27:10.159Z,15.40
2018-06-24T05:32:08.019Z,15.80
2018-06-24T05:34:37.054Z,15.80
2018-06-24T05:37:06.028Z,15.90
2018-06-24T05:39:35.104Z,16.10
2018-06-24T05:42:04.095Z,16.20
2018-06-24T05:44:33.180Z,16.20
2018-06-24T05:47:02.303Z,16.40
2018-06-24T05:49:31.316Z,16.60
2018-06-24T05:52:00.326Z,16.70
2018-06-24T05:54:29.339Z,16.70
2018-06-24T05:56:59.222Z,16.60
2018-06-24T06:01:57.004Z,16.40
2018-06-24T06:06:54.703Z,16.20
2018-06-24T06:09:23.715Z,16.40
2018-06-24T06:11:52.701Z,17.30
2018-06-24T06:14:21.824Z,17.70
2018-06-24T06:16:50.833Z,17.60
2018-06-24T06:19:19.837Z,17.30
2018-06-24T06:21:48.805Z,17.20
2018-06-24T06:24:17.812Z,17.10
2018-06-24T06:26:46.803Z,17.00
2018-06-24T06:29:15.814Z,16.70
2018-06-24T06:31:44.786Z,16.30
2018-06-24T06:34:14.688Z,16.10
2018-06-24T06:36:43.664Z,16.20
2018-06-24T06:39:12.708Z,16.00
2018-06-24T06:41:41.701Z,16.00
2018-06-24T06:44:10.770Z,15.90
2018-06-24T06:46:39.722Z,15.80
2018-06-24T06:49:08.759Z,15.90
2018-06-24T06:51:37.718Z,16.10
2018-06-24T06:54:06.728Z,16.40
2018-06-24T06:56:35.762Z,16.50
2018-06-24T06:59:04.820Z,16.40
2018-06-24T07:01:33.851Z,16.60
2018-06-24T07:04:02.858Z,16.50
2018-06-24T07:06:31.921Z,16.70
2018-06-24T07:09:00.956Z,16.80
2018-06-24T07:11:29.920Z,16.80
2018-06-24T07:13:58.964Z,16.70
2018-06-24T07:16:27.941Z,16.70
2018-06-24T07:18:56.872Z,16.70
2018-06-24T07:21:25.844Z,16.70
2018-06-24T07:23:54.847Z,16.60
2018-06-24T07:26:23.847Z,16.40
2018-06-24T07:28:52.868Z,16.30
2018-06-24T07:31:21.932Z,16.40
2018-06-24T07:33:50.985Z,16.30
2018-06-24T07:36:19.932Z,16.20
2018-06-24T07:38:48.956Z,16.20
2018-06-24T07:41:17.902Z,16.40
2018-06-24T07:43:46.927Z,16.40
2018-06-24T07:48:44.649Z,17.00
2018-06-24T07:51:13.744Z,17.10
2018-06-24T07:53:43.068Z,17.20
2018-06-24T07:56:12.077Z,17.20
2018-06-24T07:58:41.016Z,17.20
2018-06-24T08:01:10.017Z,17.40
2018-06-24T08:03:39.044Z,17.60
2018-06-24T08:06:08.059Z,17.90
2018-06-24T08:08:37.075Z,17.60
2018-06-24T08:11:06.088Z,17.60
2018-06-24T08:13:35.045Z,17.30
2018-06-24T08:16:04.040Z,17.40
2018-06-24T08:18:33.104Z,17.40
2018-06-24T08:21:02.138Z,17.30
2018-06-24T08:23:31.070Z,17.30
2018-06-24T08:26:00.062Z,17.20
2018-06-24T08:28:29.084Z,17.20
2018-06-24T08:30:58.060Z,17.20
2018-06-24T08:33:27.014Z,17.30
2018-06-24T08:35:56.155Z,17.60
2018-06-24T08:38:25.225Z,17.80
2018-06-24T08:40:54.238Z,18.10
2018-06-24T08:43:23.245Z,18.20
2018-06-24T08:45:52.250Z,18.00
2018-06-24T08:48:21.232Z,17.80
2018-06-24T08:50:50.181Z,17.70
2018-06-24T08:53:19.224Z,18.00
2018-06-24T08:55:48.231Z,18.00
2018-06-24T09:00:46.629Z,18.00
2018-06-24T09:03:15.643Z,17.90
2018-06-24T09:05:44.624Z,18.00
2018-06-24T09:08:13.631Z,18.20
2018-06-24T09:10:42.611Z,18.50
2018-06-24T09:13:11.591Z,18.90
2018-06-24T09:15:40.791Z,19.30
2018-06-24T09:18:09.781Z,19.60
2018-06-24T09:20:38.854Z,19.80
2018-06-24T09:23:07.891Z,19.90
2018-06-24T09:25:36.889Z,19.90
2018-06-24T09:28:06.114Z,19.60
2018-06-24T09:30:35.294Z,19.30
2018-06-24T09:33:04.282Z,19.40
2018-06-24T09:35:33.247Z,19.20
2018-06-24T09:38:02.381Z,19.20
2018-06-24T09:40:31.373Z,19.40
2018-06-24T09:43:00.375Z,19.50
2018-06-24T09:45:29.476Z,19.50
2018-06-24T09:47:58.472Z,19.50
2018-06-24T09:50:27.497Z,19.40
2018-06-24T09:52:56.656Z,18.90
2018-06-24T09:55:26.207Z,18.50
2018-06-24T09:57:55.232Z,18.20
2018-06-24T10:00:24.382Z,18.30
2018-06-24T10:02:53.817Z,18.40
2018-06-24T10:07:51.821Z,19.20
2018-06-24T10:10:20.869Z,19.50
2018-06-24T10:12:49.917Z,19.70
2018-06-24T10:15:19.064Z,19.60
2018-06-24T10:17:48.113Z,19.50
2018-06-24T10:20:17.125Z,19.20
2018-06-24T10:22:46.225Z,18.90
2018-06-24T10:25:15.237Z,18.90
2018-06-24T10:27:44.290Z,19.20
2018-06-24T10:30:14.344Z,19.80
2018-06-24T10:32:43.436Z,20.10
2018-06-24T10:37:41.223Z,20.40
2018-06-24T10:40:10.256Z,20.60
2018-06-24T10:42:39.547Z,20.10
2018-06-24T10:45:08.572Z,19.50
2018-06-24T10:47:37.668Z,19.30
2018-06-24T10:50:07.128Z,19.10
2018-06-24T10:52:36.928Z,19.20
2018-06-24T10:55:06.105Z,19.60
2018-06-24T10:57:35.156Z,19.50
2018-06-24T11:00:04.411Z,19.50
2018-06-24T11:02:33.460Z,19.20
2018-06-24T11:05:02.561Z,18.80
2018-06-24T11:07:31.734Z,18.40
2018-06-24T11:10:03.991Z,18.20
2018-06-24T11:12:33.952Z,18.00
2018-06-24T11:15:02.980Z,18.20
2018-06-24T11:17:31.979Z,18.40
2018-06-24T11:20:01.068Z,18.80
2018-06-24T11:22:30.096Z,19.10
2018-06-24T11:24:59.329Z,19.30
2018-06-24T11:27:28.543Z,19.20
2018-06-24T11:29:57.824Z,18.90
2018-06-24T11:32:26.993Z,18.90
2018-06-24T11:34:56.186Z,19.30
2018-06-24T11:37:25.477Z,19.50
2018-06-24T11:42:23.254Z,19.70
2018-06-24T11:44:52.371Z,19.30
2018-06-24T11:47:21.480Z,19.30
2018-06-24T11:49:50.743Z,19.10
2018-06-24T11:52:19.957Z,19.00
2018-06-24T11:57:17.901Z,19.20
2018-06-24T12:02:15.970Z,19.50
2018-06-24T12:04:45.075Z,19.30
2018-06-24T12:07:14.277Z,19.20
2018-06-24T12:09:43.524Z,19.10
2018-06-24T12:12:12.566Z,19.10
2018-06-24T12:14:41.892Z,19.30
2018-06-24T12:17:11.089Z,19.50
2018-06-24T12:19:40.434Z,19.50
2018-06-24T12:22:09.774Z,19.50
2018-06-24T12:24:39.067Z,19.40
2018-06-24T12:27:08.902Z,19.30
2018-06-24T12:29:38.019Z,19.50
2018-06-24T12:34:36.261Z,19.60
2018-06-24T12:37:05.433Z,19.50
2018-06-24T12:39:35.211Z,19.30
2018-06-24T12:42:04.461Z,18.90
2018-06-24T12:44:33.600Z,18.60
2018-06-24T12:47:02.669Z,18.60
2018-06-24T12:52:00.448Z,19.20
2018-06-24T12:54:29.532Z,19.50
2018-06-24T12:56:58.648Z,19.80
2018-06-24T12:59:27.830Z,19.80
2018-06-24T13:01:56.782Z,19.70
2018-06-24T13:04:26.954Z,19.50
2018-06-24T13:06:56.349Z,19.40
2018-06-24T13:09:25.794Z,19.30
2018-06-24T13:11:54.977Z,18.90
2018-06-24T13:14:24.019Z,18.80
2018-06-24T13:16:53.207Z,18.50
2018-06-24T13:19:22.249Z,18.20
2018-06-24T13:21:51.351Z,18.10
2018-06-24T13:24:20.903Z,17.90
2018-06-24T13:26:50.029Z,18.00
2018-06-24T13:29:19.402Z,18.10
2018-06-24T13:31:48.566Z,18.40
2018-06-24T13:34:17.880Z,18.70
2018-06-24T13:36:46.976Z,19.00
2018-06-24T13:39:16.031Z,19.10
2018-06-24T13:41:45.071Z,19.20
2018-06-24T13:44:14.117Z,19.30
2018-06-24T13:46:43.298Z,19.20
2018-06-24T13:51:41.182Z,18.60
2018-06-24T13:54:10.983Z,18.20
2018-06-24T13:56:41.022Z,18.00
2018-06-24T13:59:10.129Z,18.00
2018-06-24T14:01:39.735Z,17.90
2018-06-24T14:04:09.037Z,17.80
2018-06-24T14:11:37.317Z,17.90
2018-06-24T14:14:06.466Z,18.00
2018-06-24T14:16:35.603Z,18.20
2018-06-24T14:19:05.193Z,18.30
2018-06-24T14:21:34.321Z,18.30
2018-06-24T14:24:04.176Z,18.30
2018-06-24T14:26:33.239Z,18.40
2018-06-24T14:29:02.555Z,18.20
2018-06-24T14:31:31.928Z,18.20
2018-06-24T14:34:01.164Z,18.30
2018-06-24T14:38:59.208Z,18.20
2018-06-24T14:41:28.687Z,18.30
2018-06-24T14:43:58.258Z,18.30
2018-06-24T14:48:56.656Z,18.30
2018-06-24T14:51:25.831Z,18.20
2018-06-24T14:53:54.892Z,18.10
2018-06-24T14:56:24.101Z,17.90
2018-06-24T14:58:53.424Z,18.00
2018-06-24T15:01:22.728Z,17.90
2018-06-24T15:06:20.607Z,18.00
2018-06-24T15:08:49.734Z,18.20
2018-06-24T15:13:47.522Z,18.10
2018-06-24T15:18:46.526Z,17.70
2018-06-24T15:21:15.732Z,17.70
2018-06-24T15:23:44.916Z,17.50
2018-06-24T15:26:16.968Z,17.40
2018-06-24T15:28:46.079Z,17.30
2018-06-24T15:31:15.205Z,17.20
2018-06-24T15:33:44.739Z,17.10
2018-06-24T15:36:13.936Z,17.00
2018-06-24T15:38:43.261Z,17.00
2018-06-24T15:41:12.708Z,17.10
2018-06-24T15:43:41.853Z,17.10
2018-06-24T15:46:11.590Z,17.10
2018-06-24T15:51:14.255Z,17.10
2018-06-24T15:53:43.430Z,17.10
2018-06-24T15:56:12.719Z,17.10
2018-06-24T15:58:42.132Z,17.10
2018-06-24T16:01:11.221Z,17.20
2018-06-24T16:03:40.333Z,17.20
2018-06-24T16:06:09.434Z,17.10
2018-06-24T16:08:39.805Z,17.10
2018-06-24T16:11:08.942Z,17.10
2018-06-24T16:13:38.249Z,17.10
2018-06-24T16:16:07.628Z,17.10
2018-06-24T16:18:36.640Z,17.00
2018-06-24T16:21:05.969Z,16.90
2018-06-24T16:23:34.953Z,16.90
2018-06-24T16:26:04.122Z,16.90
2018-06-24T16:28:33.275Z,16.90
2018-06-24T16:33:32.636Z,16.90
2018-06-24T16:36:02.168Z,16.90
2018-06-24T16:41:00.178Z,16.80
2018-06-24T16:45:58.078Z,17.00
2018-06-24T16:48:27.234Z,17.00
2018-06-24T16:50:56.587Z,17.00
2018-06-24T16:53:26.596Z,17.00
2018-06-24T16:55:55.657Z,17.00
2018-06-24T16:58:24.735Z,17.00
2018-06-24T17:00:53.792Z,17.10
2018-06-24T17:03:22.955Z,17.00
2018-06-24T17:08:22.593Z,17.10
2018-06-24T17:10:51.884Z,17.00
2018-06-24T17:13:21.907Z,17.00
2018-06-24T17:18:19.790Z,16.90
2018-06-24T17:25:47.282Z,17.10
2018-06-24T17:28:17.453Z,17.00
2018-06-24T17:30:47.346Z,16.90
2018-06-24T17:33:16.565Z,17.00
2018-06-24T17:35:45.861Z,16.90
2018-06-24T17:38:14.962Z,16.90
2018-06-24T17:40:44.114Z,17.00
2018-06-24T17:43:13.147Z,17.00
2018-06-24T17:45:42.196Z,17.00
2018-06-24T17:48:11.232Z,17.00
2018-06-24T17:50:40.404Z,17.00
2018-06-24T17:53:09.540Z,17.00
2018-06-24T17:55:39.343Z,16.90
2018-06-24T17:58:08.581Z,17.00
2018-06-24T18:00:37.837Z,17.00
2018-06-24T18:03:07.143Z,16.90
2018-06-24T18:05:36.368Z,16.90
2018-06-24T18:08:05.935Z,16.90
2018-06-24T18:10:35.033Z,16.80
2018-06-24T18:13:05.140Z,16.80
2018-06-24T18:15:34.270Z,16.80
2018-06-24T18:18:03.467Z,16.70
2018-06-24T18:20:32.643Z,16.70
2018-06-24T18:23:01.883Z,16.60
2018-06-24T18:25:31.691Z,16.40
2018-06-24T18:28:01.337Z,16.40
2018-06-24T18:30:30.467Z,16.30
2018-06-24T18:32:59.536Z,16.30
2018-06-24T18:35:28.564Z,16.30
2018-06-24T18:37:58.196Z,16.30
2018-06-24T18:40:28.336Z,16.30
2018-06-24T18:42:58.667Z,16.40
2018-06-24T18:45:28.217Z,16.30
2018-06-24T18:47:57.517Z,16.30
2018-06-24T18:50:26.790Z,16.20
2018-06-24T18:52:57.922Z,16.20
2018-06-24T18:55:27.064Z,16.10
2018-06-24T18:57:56.158Z,16.10
2018-06-24T19:00:25.213Z,16.10
2018-06-24T19:02:54.297Z,16.10
2018-06-24T19:05:23.317Z,16.10
2018-06-24T19:07:52.765Z,16.00
2018-06-24T19:10:22.614Z,15.90
2018-06-24T19:12:52.255Z,15.90
2018-06-24T19:15:21.381Z,15.90
2018-06-24T19:17:50.427Z,15.90
2018-06-24T19:20:19.746Z,15.90
2018-06-24T19:22:48.828Z,15.90
2018-06-24T19:25:22.497Z,15.80
2018-06-24T19:27:52.380Z,15.80
2018-06-24T19:32:50.863Z,15.70
2018-06-24T19:35:20.416Z,15.60
2018-06-24T19:37:50.028Z,15.60
2018-06-24T19:40:19.583Z,15.50
2018-06-24T19:42:49.809Z,15.50
2018-06-24T19:45:19.232Z,15.50
2018-06-24T19:47:48.353Z,15.40
2018-06-24T19:50:17.579Z,15.40
2018-06-24T19:52:46.898Z,15.50
2018-06-24T19:55:16.087Z,15.40
2018-06-24T19:57:45.379Z,15.40
2018-06-24T20:00:14.489Z,15.40
2018-06-24T20:02:44.137Z,15.30
2018-06-24T20:05:14.636Z,15.30
2018-06-24T20:07:44.483Z,15.10
2018-06-24T20:10:13.852Z,15.10
2018-06-24T20:12:43.456Z,15.10
2018-06-24T20:15:12.799Z,15.00
2018-06-24T20:17:41.874Z,15.00
2018-06-24T20:20:11.280Z,14.90
2018-06-24T20:22:41.383Z,14.80
2018-06-24T20:25:10.454Z,14.70
2018-06-24T20:30:09.481Z,14.60
2018-06-24T20:32:38.821Z,14.50
2018-06-24T20:35:08.037Z,14.50
2018-06-24T20:37:37.284Z,14.50
2018-06-24T20:40:06.657Z,14.50
2018-06-24T20:42:35.689Z,14.50
2018-06-24T20:45:05.060Z,14.40
2018-06-24T20:47:34.146Z,14.30
2018-06-24T20:50:03.463Z,14.20
2018-06-24T20:52:32.703Z,14.10
2018-06-24T20:55:01.806Z,14.00
2018-06-24T20:57:30.943Z,14.00
2018-06-24T21:00:00.173Z,13.90
2018-06-24T21:02:29.181Z,13.90
2018-06-24T21:04:58.747Z,13.80
2018-06-24T21:07:27.955Z,13.70
2018-06-24T21:09:57.006Z,13.70
2018-06-24T21:12:26.234Z,13.60
2018-06-24T21:14:55.273Z,13.60
2018-06-24T21:17:24.427Z,13.50
2018-06-24T21:19:53.507Z,13.50
2018-06-24T21:22:23.367Z,13.40
2018-06-24T21:27:21.008Z,13.40
2018-06-24T21:29:49.999Z,13.40
2018-06-24T21:32:18.972Z,13.40
2018-06-24T21:34:47.930Z,13.40
2018-06-24T21:37:16.944Z,13.40
2018-06-24T21:39:45.923Z,13.40
2018-06-24T21:42:14.903Z,13.40
2018-06-24T21:44:43.954Z,13.30
2018-06-24T21:47:12.943Z,13.30
2018-06-24T21:49:41.918Z,13.30
2018-06-24T21:52:10.997Z,13.20
2018-06-24T21:54:40.033Z,13.20
2018-06-24T21:57:09.007Z,13.20
2018-06-24T21:59:37.983Z,13.20
2018-06-24T22:02:07.117Z,13.10
2018-06-24T22:04:36.076Z,13.10
2018-06-24T22:07:05.096Z,13.10
2018-06-24T22:09:34.216Z,13.10
2018-06-24T22:12:03.303Z,13.10
2018-06-24T22:14:32.327Z,13.00
2018-06-24T22:17:01.454Z,13.00
2018-06-24T22:19:30.520Z,13.10
2018-06-24T22:21:59.588Z,13.10
2018-06-24T22:24:28.568Z,13.30
2018-06-24T22:26:57.600Z,13.40
2018-06-24T22:31:55.162Z,13.60
2018-06-24T22:34:24.163Z,13.80
2018-06-24T22:36:53.143Z,13.90
2018-06-24T22:39:22.106Z,14.00
2018-06-24T22:41:51.163Z,14.10
2018-06-24T22:44:20.197Z,14.10
2018-06-24T22:46:49.215Z,14.20
2018-06-24T22:49:18.194Z,14.20
2018-06-24T22:54:16.134Z,14.30
2018-06-24T22:56:45.369Z,14.30
2018-06-24T22:59:26.081Z,14.30
2018-06-24T23:01:55.197Z,14.40
2018-06-24T23:04:24.489Z,14.40
2018-06-24T23:06:53.591Z,14.40
2018-06-24T23:09:22.687Z,14.50
2018-06-24T23:11:51.707Z,14.50
2018-06-24T23:14:20.763Z,14.60
2018-06-24T23:16:49.911Z,14.60
2018-06-24T23:19:18.887Z,14.70
2018-06-24T23:21:47.911Z,14.70
2018-06-24T23:24:16.971Z,14.70
2018-06-24T23:26:46.218Z,14.70
2018-06-24T23:31:44.254Z,14.60
2018-06-24T23:34:13.465Z,14.60
2018-06-24T23:36:42.704Z,14.70
2018-06-24T23:39:11.761Z,14.70
2018-06-24T23:41:40.865Z,14.60
2018-06-24T23:44:09.892Z,14.70
2018-06-24T23:46:38.911Z,14.70
2018-06-24T23:49:07.948Z,14.60
2018-06-24T23:51:37.013Z,14.50
2018-06-24T23:54:06.091Z,14.30
2018-06-24T23:56:35.275Z,14.40
2018-06-24T23:59:04.330Z,14.30
